Time;durP1;ratioP1;P1;durP2;ratioP2;P2;SDS_P1;SDS_P2;PMS_P1;PMS_P2;Temp;Humidity;BMP_temperature;BMP_pressure;BME280_temperature;BME280_humidity;BME280_pressure;Samples;Min_cycle;Max_cycle;Signal;HPM_P1;HPM_P2
2021/12/24 00:03:29;;;;;;;10.80;7.40;;;;;;;8.56;65.46;97031.41;8250269;28;20525;-69
2021/12/24 00:07:32;;;;;;;10.80;7.63;;;;;;;8.49;65.52;97007.66;8250690;28;20238;-69
2021/12/24 00:11:35;;;;;;;8.77;7.47;;;;;;;8.44;66.12;97003.66;8250866;28;20572;-69
2021/12/24 00:15:56;;;;;;;12.83;7.40;;;;;;;8.61;65.45;97007.03;8250716;28;20229;-69
2021/12/24 00:20:28;;;;;;;9.47;7.37;;;;;;;8.64;65.52;96993.09;8250641;28;20462;-69
2021/12/24 00:37:40;;;;;;;9.43;7.00;;;;;;;8.62;66.02;96958.81;8250327;28;20529;-69
2021/12/24 00:41:48;;;;;;;10.57;7.10;;;;;;;8.70;66.11;96954.09;8250109;28;20644;-69
2021/12/24 00:45:51;;;;;;;11.03;7.40;;;;;;;8.70;65.94;96946.34;8249786;28;20241;-69
2021/12/24 00:49:56;;;;;;;9.10;7.10;;;;;;;8.76;65.96;96945.19;8249899;28;20341;-69
2021/12/24 00:58:20;;;;;;;9.47;6.73;;;;;;;8.82;66.49;96956.94;8243719;28;20230;-69
2021/12/24 01:02:23;;;;;;;9.33;6.73;;;;;;;8.81;67.50;96958.66;8249955;28;20241;-69
2021/12/24 01:06:27;;;;;;;9.63;6.93;;;;;;;8.91;67.44;96971.91;8249716;28;20431;-69
2021/12/24 01:10:33;;;;;;;9.40;6.53;;;;;;;8.77;67.81;96976.06;8251170;28;20238;-69
2021/12/24 01:14:36;;;;;;;8.87;6.57;;;;;;;8.91;67.47;96977.94;8256345;28;20241;-69
2021/12/24 01:18:47;;;;;;;9.27;6.67;;;;;;;8.92;67.42;96982.16;8256476;28;20240;-69
2021/12/24 01:27:37;;;;;;;8.57;6.80;;;;;;;8.85;68.24;96985.16;8255372;28;20424;-69
2021/12/24 01:40:24;;;;;;;10.23;6.80;;;;;;;8.88;69.55;96980.66;8255212;28;20245;-69
2021/12/24 01:44:28;;;;;;;10.93;7.40;;;;;;;8.87;69.35;96978.16;8257068;28;20434;-69
2021/12/24 01:48:32;;;;;;;8.03;6.63;;;;;;;8.90;69.39;96981.41;8257617;28;20398;-69
2021/12/24 01:52:37;;;;;;;9.70;6.17;;;;;;;8.99;69.09;96975.78;8256215;28;20241;-69
2021/12/24 01:56:42;;;;;;;7.93;6.23;;;;;;;9.00;69.13;96979.19;8255609;28;20575;-69
2021/12/24 02:00:47;;;;;;;9.10;6.20;;;;;;;9.05;69.11;96976.38;8255256;28;20226;-69
2021/12/24 02:04:50;;;;;;;8.63;6.67;;;;;;;9.07;69.39;96964.19;8255110;28;20238;-69
2021/12/24 02:08:52;;;;;;;9.17;6.17;;;;;;;8.98;69.63;96957.78;8254869;28;20242;-69
2021/12/24 02:12:58;;;;;;;11.97;6.77;;;;;;;8.84;69.43;96937.88;8254489;28;20245;-69
2021/12/24 02:17:25;;;;;;;9.87;6.67;;;;;;;9.06;68.66;96932.34;8254600;28;20238;-69
2021/12/24 02:30:10;;;;;;;8.23;5.87;;;;;;;9.10;68.12;96914.94;8245926;28;20425;-70
2021/12/24 02:34:13;;;;;;;12.07;6.33;;;;;;;9.09;67.50;96903.78;8253800;28;20238;-69
2021/12/24 02:38:18;;;;;;;7.70;5.47;;;;;;;9.06;67.83;96901.34;8253586;28;20251;-69
2021/12/24 02:42:23;;;;;;;8.17;5.53;;;;;;;9.10;67.63;96895.13;8253517;28;20238;-69
2021/12/24 02:46:31;;;;;;;7.70;5.43;;;;;;;9.15;67.07;96890.53;8253490;28;20552;-69
2021/12/24 02:55:00;;;;;;;7.80;5.03;;;;;;;9.16;66.69;96883.63;8253434;28;20238;-69
2021/12/24 02:59:05;;;;;;;6.53;5.20;;;;;;;9.16;66.47;96886.22;8253407;28;20533;-69
2021/12/24 03:03:08;;;;;;;8.20;5.10;;;;;;;9.27;66.48;96881.28;8244919;28;20237;-70
2021/12/24 03:07:11;;;;;;;9.40;5.63;;;;;;;9.28;66.05;96884.69;8252303;28;20234;-69
2021/12/24 03:11:15;;;;;;;6.80;5.13;;;;;;;9.31;66.47;96881.91;8253165;28;20234;-69
2021/12/24 03:15:21;;;;;;;8.87;5.40;;;;;;;9.33;66.01;96873.19;8252964;28;20238;-69
2021/12/24 03:19:27;;;;;;;7.40;5.20;;;;;;;9.34;66.22;96876.59;8252745;28;20240;-69
2021/12/24 03:23:37;;;;;;;9.93;5.40;;;;;;;9.33;66.49;96880.09;8252454;28;20234;-69
2021/12/24 03:27:42;;;;;;;8.40;5.60;;;;;;;9.38;66.82;96896.16;8252581;28;20240;-68
2021/12/24 03:31:45;;;;;;;8.23;5.03;;;;;;;9.31;67.47;96885.34;8252621;28;20238;-69
2021/12/24 03:35:48;;;;;;;8.80;5.93;;;;;;;9.33;67.77;96880.94;8252073;28;20234;-69
2021/12/24 03:39:51;;;;;;;9.00;5.47;;;;;;;9.42;67.82;96874.38;8251872;28;20234;-69
2021/12/24 03:43:56;;;;;;;7.47;5.60;;;;;;;9.43;67.47;96865.72;8251961;28;20245;-69
2021/12/24 03:48:03;;;;;;;7.77;6.00;;;;;;;9.41;67.76;96870.16;8251744;28;20313;-69
2021/12/24 03:52:20;;;;;;;8.43;5.70;;;;;;;9.45;68.21;96875.97;8251456;28;20241;-69
2021/12/24 03:56:23;;;;;;;6.87;5.77;;;;;;;9.37;68.44;96871.25;8251230;28;20533;-69
2021/12/24 04:00:29;;;;;;;8.33;5.23;;;;;;;9.45;67.64;96878.56;8250970;28;20234;-69
2021/12/24 04:04:32;;;;;;;8.13;6.00;;;;;;;9.47;67.49;96880.13;8250786;28;20249;-69
2021/12/24 04:08:35;;;;;;;7.77;6.17;;;;;;;9.38;67.92;96872.91;8250652;28;20250;-70
2021/12/24 04:12:38;;;;;;;9.40;5.73;;;;;;;9.49;67.31;96880.06;8250595;28;20230;-69
2021/12/24 04:16:43;;;;;;;6.80;5.80;;;;;;;9.49;67.32;96865.38;8250993;28;20239;-69
2021/12/24 04:25:07;;;;;;;8.77;6.37;;;;;;;9.51;67.18;96853.19;8250642;28;20238;-69
2021/12/24 04:29:10;;;;;;;8.23;5.80;;;;;;;9.56;67.14;96853.75;8242471;28;20234;-69
2021/12/24 04:33:20;;;;;;;8.23;6.33;;;;;;;9.39;67.63;96854.72;8250534;28;20234;-69
2021/12/24 04:38:06;;;;;;;10.10;6.30;;;;;;;9.60;66.64;96859.59;8250449;28;20426;-69
2021/12/24 04:51:09;;;;;;;7.87;6.07;;;;;;;9.49;66.57;96856.78;8218235;28;20230;-69
2021/12/24 05:03:53;;;;;;;8.67;5.80;;;;;;;9.50;66.81;96850.69;8217727;28;20241;-69
2021/12/24 05:12:27;;;;;;;6.87;5.40;;;;;;;9.71;66.05;96840.84;8217458;28;23611;-69
2021/12/24 05:16:41;;;;;;;7.90;5.63;;;;;;;9.63;66.64;96856.81;8217638;28;20257;-70
2021/12/24 05:25:06;;;;;;;7.37;6.33;;;;;;;9.45;67.90;96855.31;8217204;28;20438;-69
2021/12/24 05:29:10;;;;;;;8.63;6.27;;;;;;;9.47;67.43;96843.13;8217052;28;20408;-70
2021/12/24 05:33:14;;;;;;;9.57;6.73;;;;;;;9.59;67.25;96860.50;8217575;28;20239;-70
2021/12/24 05:37:18;;;;;;;7.77;6.27;;;;;;;9.54;67.52;96862.53;8217241;28;20249;-69
2021/12/24 05:41:22;;;;;;;8.77;6.47;;;;;;;9.75;66.54;96852.69;8239801;28;20250;-69
2021/12/24 05:45:25;;;;;;;9.13;6.60;;;;;;;9.69;66.69;96853.88;8249273;28;20399;-69
2021/12/24 05:49:28;;;;;;;9.43;7.00;;;;;;;9.58;67.17;96851.91;8249226;28;20241;-69
2021/12/24 05:53:31;;;;;;;8.77;7.10;;;;;;;9.75;66.77;96847.53;8249260;28;20564;-70
2021/12/24 05:57:35;;;;;;;9.77;7.20;;;;;;;9.59;67.25;96857.91;8252264;28;20233;-70
2021/12/24 06:01:38;;;;;;;8.43;6.80;;;;;;;9.64;67.19;96849.91;8254915;28;20230;-70
2021/12/24 06:05:43;;;;;;;8.67;7.03;;;;;;;9.72;66.91;96861.44;8254710;28;20537;-70
2021/12/24 06:09:46;;;;;;;8.77;7.13;;;;;;;9.67;66.87;96867.81;8254958;28;20238;-70
2021/12/24 06:13:53;;;;;;;9.27;7.03;;;;;;;9.69;67.04;96869.41;8254479;28;20240;-70
2021/12/24 06:17:58;;;;;;;8.47;7.33;;;;;;;9.68;66.92;96872.91;8254506;28;20265;-70
2021/12/24 06:22:01;;;;;;;9.87;7.33;;;;;;;9.59;67.38;96878.59;8254911;28;20249;-69
2021/12/24 06:26:05;;;;;;;10.60;7.77;;;;;;;9.65;67.56;96875.66;8254682;28;20435;-69
2021/12/24 06:30:13;;;;;;;8.67;7.60;;;;;;;9.59;67.79;96884.63;8254040;28;20547;-70
2021/12/24 06:34:16;;;;;;;10.87;8.43;;;;;;;9.69;67.42;96873.72;8253822;28;20240;-70
2021/12/24 06:38:19;;;;;;;11.60;8.50;;;;;;;9.65;67.65;96893.75;8254480;28;20244;-70
2021/12/24 06:42:22;;;;;;;10.43;8.03;;;;;;;9.76;67.01;96900.88;8253841;28;20230;-70
2021/12/24 06:46:27;;;;;;;10.90;8.77;;;;;;;9.83;66.82;96911.72;8253194;28;20517;-69
2021/12/24 06:50:30;;;;;;;9.80;8.20;;;;;;;9.68;67.29;96914.25;8253845;28;20234;-69
2021/12/24 06:54:33;;;;;;;11.10;10.00;;;;;;;9.71;66.97;96906.34;8253702;28;20551;-69
2021/12/24 06:58:36;;;;;;;12.03;9.20;;;;;;;9.75;66.78;96913.00;8252980;28;20424;-69
2021/12/24 07:02:40;;;;;;;11.10;9.17;;;;;;;9.69;67.23;96905.59;8253075;28;20238;-69
2021/12/24 07:06:45;;;;;;;12.07;9.77;;;;;;;9.80;67.10;96904.94;8252777;28;20580;-69
2021/12/24 07:10:52;;;;;;;14.83;10.50;;;;;;;9.79;66.93;96895.53;8252334;28;20241;-70
2021/12/24 07:14:55;;;;;;;12.33;9.50;;;;;;;9.70;67.38;96902.06;8252590;28;20245;-69
2021/12/24 07:18:59;;;;;;;13.03;9.10;;;;;;;9.83;67.05;96904.78;8252601;28;20249;-69
2021/12/24 07:23:02;;;;;;;11.70;9.03;;;;;;;9.79;66.80;96911.88;8252547;28;20245;-70
2021/12/24 07:27:06;;;;;;;14.53;9.70;;;;;;;9.77;67.60;96921.50;8252278;28;20241;-69
2021/12/24 07:31:09;;;;;;;12.77;10.10;;;;;;;9.79;67.25;96904.13;8244108;28;20233;-70
2021/12/24 07:35:14;;;;;;;13.70;10.77;;;;;;;9.83;66.62;96911.72;8252225;28;20301;-69
2021/12/24 07:39:17;;;;;;;14.67;10.67;;;;;;;9.75;67.45;96913.00;8251899;28;20538;-69
2021/12/24 07:43:20;;;;;;;13.50;9.80;;;;;;;9.94;66.37;96923.09;8251924;28;20294;-69
2021/12/24 07:47:31;;;;;;;13.50;11.50;;;;;;;9.79;66.92;96929.16;8251769;28;20238;-70
2021/12/24 07:56:01;;;;;;;18.23;12.93;;;;;;;9.94;66.73;96933.44;8236738;28;20234;-69
2021/12/24 08:00:06;;;;;;;20.03;14.67;;;;;;;9.78;68.08;96932.66;8251406;28;20244;-70
2021/12/24 08:04:09;;;;;;;17.70;13.20;;;;;;;9.89;67.36;96930.28;8250774;28;20230;-70
2021/12/24 08:08:14;;;;;;;28.40;17.80;;;;;;;9.77;67.96;96911.16;8251034;28;20238;-70
2021/12/24 08:12:17;;;;;;;19.63;14.77;;;;;;;9.83;68.09;96916.88;8251277;28;20241;-70
2021/12/24 08:16:20;;;;;;;16.37;12.87;;;;;;;9.91;68.03;96922.44;8251482;28;20238;-70
2021/12/24 08:20:25;;;;;;;15.57;13.53;;;;;;;9.96;68.03;96928.19;8250470;28;20246;-69
2021/12/24 08:24:30;;;;;;;15.23;9.97;;;;;;;9.96;68.25;96939.34;8250691;28;20230;-69
2021/12/24 08:28:33;;;;;;;12.77;9.60;;;;;;;10.03;67.41;96936.41;8250249;28;20238;-69
2021/12/24 08:32:38;;;;;;;12.00;9.47;;;;;;;10.05;67.84;96932.81;8250458;28;20234;-70
2021/12/24 08:36:41;;;;;;;11.70;9.10;;;;;;;9.95;68.12;96932.50;8250285;28;20242;-69
2021/12/24 08:40:46;;;;;;;11.23;8.80;;;;;;;9.99;67.68;96917.63;8250143;28;20237;-69
2021/12/24 08:44:49;;;;;;;13.17;9.90;;;;;;;9.94;67.82;96915.34;8250216;28;20399;-69
2021/12/24 08:48:52;;;;;;;12.80;10.93;;;;;;;9.71;68.75;96914.09;8249939;28;20238;-69
2021/12/24 08:52:55;;;;;;;13.10;11.07;;;;;;;9.82;68.40;96920.38;8250075;28;20238;-70
2021/12/24 08:56:59;;;;;;;13.97;10.80;;;;;;;9.72;68.28;96914.91;8249935;28;20238;-69
2021/12/24 09:01:02;;;;;;;20.23;15.27;;;;;;;9.92;68.07;96911.19;8249920;28;20241;-70
2021/12/24 09:05:05;;;;;;;14.37;10.80;;;;;;;9.93;67.54;96910.25;8249601;28;20238;-70
2021/12/24 09:09:10;;;;;;;15.37;11.27;;;;;;;9.91;67.63;96907.75;8249223;28;20238;-69
2021/12/24 09:13:14;;;;;;;16.00;12.87;;;;;;;9.82;68.14;96902.28;8249621;28;20244;-70
2021/12/24 09:17:17;;;;;;;16.57;12.13;;;;;;;9.88;67.75;96897.59;8249872;28;20242;-70
2021/12/24 09:21:22;;;;;;;14.57;12.40;;;;;;;9.91;67.46;96892.22;8249645;28;20238;-70
2021/12/24 09:25:26;;;;;;;14.47;11.10;;;;;;;9.89;67.69;96888.09;8249682;28;20245;-69
2021/12/24 09:29:30;;;;;;;15.70;11.07;;;;;;;9.93;67.57;96894.72;8249208;28;20242;-70
2021/12/24 09:33:37;;;;;;;13.23;10.70;;;;;;;9.89;67.38;96883.72;8254174;28;20230;-70
2021/12/24 09:37:41;;;;;;;15.43;12.03;;;;;;;9.85;67.50;96891.78;8255743;28;20429;-70
2021/12/24 09:41:45;;;;;;;14.67;11.80;;;;;;;9.85;67.94;96892.59;8255408;28;20230;-70
2021/12/24 09:45:50;;;;;;;13.73;11.63;;;;;;;9.92;67.87;96878.41;8255411;28;20238;-70
2021/12/24 09:49:53;;;;;;;14.53;11.53;;;;;;;9.84;67.54;96872.81;8255272;28;20234;-70
2021/12/24 09:53:57;;;;;;;15.47;11.47;;;;;;;9.87;67.58;96890.75;8255430;28;20541;-70
2021/12/24 09:58:00;;;;;;;15.47;11.90;;;;;;;9.90;67.72;96893.16;8254745;28;20244;-69
2021/12/24 10:02:07;;;;;;;17.67;13.27;;;;;;;9.83;67.55;96899.63;8254784;28;20234;-70
2021/12/24 10:06:11;;;;;;;15.67;12.17;;;;;;;10.01;67.01;96908.03;8253981;28;20317;-70
2021/12/24 10:10:15;;;;;;;15.93;11.53;;;;;;;9.97;66.94;96902.22;8254619;28;20450;-70
2021/12/24 10:14:20;;;;;;;17.77;12.57;;;;;;;9.93;66.83;96915.41;8254201;28;20241;-70
2021/12/24 10:18:32;;;;;;;15.77;11.97;;;;;;;9.88;67.00;96912.25;8254225;28;20238;-70
2021/12/24 10:22:46;;;;;;;15.17;11.60;;;;;;;9.91;67.04;96902.56;8254417;28;20237;-70
2021/12/24 10:26:51;;;;;;;14.93;11.87;;;;;;;9.98;66.94;96893.53;8254154;28;20234;-70
2021/12/24 10:31:01;;;;;;;16.10;11.83;;;;;;;10.02;66.12;96907.13;8253904;28;20241;-70
2021/12/24 10:35:18;;;;;;;16.87;11.10;;;;;;;9.97;66.61;96899.63;8253896;28;20246;-70
2021/12/24 10:39:23;;;;;;;16.90;11.77;;;;;;;9.91;66.80;96894.81;8247332;28;20237;-70
2021/12/24 10:43:27;;;;;;;16.37;11.87;;;;;;;10.01;66.78;96886.53;8252905;28;20241;-70
2021/12/24 10:47:33;;;;;;;15.00;12.03;;;;;;;9.77;67.38;96879.28;8253581;28;20241;-69
2021/12/24 10:51:57;;;;;;;16.37;11.80;;;;;;;10.00;66.86;96865.00;8253542;28;20234;-70
2021/12/24 10:56:02;;;;;;;15.80;12.40;;;;;;;10.09;67.15;96866.19;8253431;28;20238;-70
2021/12/24 11:00:07;;;;;;;14.73;11.47;;;;;;;10.16;67.14;96862.31;8253260;28;20238;-69
2021/12/24 11:04:10;;;;;;;14.07;12.43;;;;;;;10.20;66.78;96860.38;8252737;28;20239;-70
2021/12/24 11:08:16;;;;;;;14.57;12.10;;;;;;;10.17;67.14;96864.00;8252715;28;20289;-70
2021/12/24 11:12:37;;;;;;;17.20;12.97;;;;;;;10.15;66.97;96853.75;8252935;28;20252;-70
2021/12/24 11:16:45;;;;;;;13.93;11.53;;;;;;;10.25;66.85;96858.34;8252858;28;20555;-70
2021/12/24 11:20:52;;;;;;;18.10;12.37;;;;;;;10.06;67.62;96859.47;8252511;28;20234;-70
2021/12/24 11:24:57;;;;;;;16.13;12.57;;;;;;;10.08;67.69;96851.63;8252627;28;20238;-70
2021/12/24 11:29:00;;;;;;;17.00;13.10;;;;;;;10.04;67.72;96853.53;8252387;28;20248;-70
2021/12/24 11:33:03;;;;;;;16.17;12.13;;;;;;;10.28;66.96;96846.06;8252021;28;20429;-70
2021/12/24 11:37:06;;;;;;;17.07;12.23;;;;;;;10.08;67.48;96847.25;8251971;28;20549;-70
2021/12/24 11:41:13;;;;;;;17.47;11.53;;;;;;;10.03;68.00;96854.47;8243666;28;20241;-70
2021/12/24 11:45:16;;;;;;;18.30;13.40;;;;;;;10.10;67.70;96853.16;8251863;28;20415;-70
2021/12/24 11:49:19;;;;;;;14.63;11.70;;;;;;;10.01;67.67;96856.31;8251557;28;20241;-70
2021/12/24 11:53:22;;;;;;;14.70;11.10;;;;;;;10.13;67.36;96858.19;8251657;28;20425;-70
2021/12/24 11:57:26;;;;;;;14.17;11.53;;;;;;;10.08;67.76;96859.38;8251565;28;20234;-70
2021/12/24 12:01:38;;;;;;;15.00;10.57;;;;;;;10.23;67.08;96849.88;8251557;28;20236;-70
2021/12/24 12:05:41;;;;;;;14.03;11.10;;;;;;;10.14;68.07;96851.25;8250811;28;20399;-70
2021/12/24 12:09:46;;;;;;;14.87;11.53;;;;;;;10.06;67.92;96832.78;8251037;28;20238;-70
2021/12/24 12:13:53;;;;;;;16.50;11.63;;;;;;;10.14;67.28;96826.19;8251186;28;20230;-69
2021/12/24 12:17:59;;;;;;;15.23;11.03;;;;;;;10.27;66.72;96830.63;8251090;28;20237;-70
2021/12/24 12:22:18;;;;;;;16.13;12.40;;;;;;;10.20;66.56;96837.09;8251153;28;20238;-70
2021/12/24 12:26:35;;;;;;;16.47;13.13;;;;;;;10.29;66.50;96839.13;8244398;28;20241;-70
2021/12/24 12:30:42;;;;;;;16.90;11.40;;;;;;;10.23;66.90;96829.16;8250549;28;20238;-70
2021/12/24 12:34:51;;;;;;;15.07;12.30;;;;;;;10.13;67.52;96816.78;8250601;28;20240;-70
2021/12/24 12:38:54;;;;;;;17.97;12.93;;;;;;;9.98;68.18;96818.53;8250243;28;20238;-70
2021/12/24 12:43:14;;;;;;;17.53;12.97;;;;;;;10.01;68.31;96822.69;8250315;28;20242;-70
2021/12/24 12:47:27;;;;;;;16.67;12.33;;;;;;;10.18;67.54;96813.91;8244186;28;20230;-70
2021/12/24 12:51:52;;;;;;;17.07;12.70;;;;;;;10.10;68.01;96795.44;8250714;28;20515;-70
2021/12/24 12:56:16;;;;;;;16.30;12.90;;;;;;;10.23;67.14;96791.16;8250602;28;20244;-70
2021/12/24 13:00:27;;;;;;;16.90;13.70;;;;;;;10.34;66.98;96793.13;8243552;28;20305;-70
2021/12/24 13:04:32;;;;;;;18.90;14.80;;;;;;;10.23;67.48;96803.28;8249770;28;20234;-70
2021/12/24 13:08:39;;;;;;;19.93;14.30;;;;;;;10.33;67.11;96801.81;8254784;28;20405;-70
2021/12/24 13:12:42;;;;;;;19.73;15.00;;;;;;;10.25;67.63;96797.09;8256243;28;20340;-70
2021/12/24 13:16:49;;;;;;;20.03;15.03;;;;;;;10.36;67.29;96806.81;8255862;28;20230;-70
2021/12/24 13:25:18;;;;;;;18.53;13.83;;;;;;;10.27;68.11;96807.34;8255531;28;20530;-70
2021/12/24 13:29:23;;;;;;;22.87;16.27;;;;;;;10.27;68.37;96799.59;8256035;28;20245;-70
2021/12/24 13:33:26;;;;;;;19.17;14.40;;;;;;;10.20;68.56;96804.28;8255883;28;20240;-70
2021/12/24 13:37:33;;;;;;;16.10;14.03;;;;;;;10.20;68.67;96795.69;8255752;28;20417;-70
2021/12/24 13:41:36;;;;;;;20.37;14.03;;;;;;;10.08;68.42;96792.94;8255670;28;20567;-70
2021/12/24 13:45:40;;;;;;;19.57;14.27;;;;;;;10.09;68.83;96804.97;8255405;28;20264;-70
2021/12/24 13:50:23;;;;;;;22.07;14.10;;;;;;;10.12;68.96;96801.34;8255336;28;20230;-70
2021/12/24 13:54:34;;;;;;;17.07;14.17;;;;;;;10.04;69.22;96801.00;8249875;28;20329;-70
2021/12/24 13:58:38;;;;;;;15.77;13.13;;;;;;;10.13;69.33;96803.03;8255610;28;20230;-70
2021/12/24 14:02:42;;;;;;;17.77;13.70;;;;;;;10.08;69.58;96805.06;8254865;28;20540;-70
2021/12/24 14:06:48;;;;;;;20.83;15.20;;;;;;;10.15;68.87;96808.94;8254412;28;20249;-70
2021/12/24 14:11:04;;;;;;;15.40;12.63;;;;;;;10.07;69.30;96808.53;8254719;28;20428;-70
2021/12/24 14:15:10;;;;;;;15.53;12.70;;;;;;;10.05;69.80;96803.50;8254098;28;20234;-71
2021/12/24 14:19:16;;;;;;;14.13;11.67;;;;;;;10.05;69.48;96802.63;8253279;28;20563;-70
2021/12/24 14:23:19;;;;;;;12.90;11.13;;;;;;;9.93;70.16;96807.63;8254171;28;20234;-70
2021/12/24 14:27:27;;;;;;;15.57;12.50;;;;;;;10.11;69.14;96807.44;8254485;28;20583;-70
2021/12/24 14:31:30;;;;;;;15.10;11.77;;;;;;;10.16;69.09;96816.56;8254312;28;20261;-70
2021/12/24 14:35:34;;;;;;;13.80;10.60;;;;;;;10.15;69.32;96803.75;8253763;28;20430;-70
2021/12/24 14:39:40;;;;;;;14.13;11.97;;;;;;;10.15;69.43;96799.41;8253914;28;20234;-70
2021/12/24 14:43:44;;;;;;;16.17;13.23;;;;;;;10.20;68.97;96801.69;8253860;28;20241;-70
2021/12/24 14:48:04;;;;;;;16.60;12.20;;;;;;;10.24;68.67;96808.34;8253402;28;20522;-70
2021/12/24 14:52:22;;;;;;;14.87;10.93;;;;;;;10.26;68.49;96796.16;8252865;28;20242;-71
2021/12/24 14:56:25;;;;;;;15.90;12.77;;;;;;;10.25;68.80;96796.25;8253553;28;20234;-70
2021/12/24 15:00:34;;;;;;;14.30;12.80;;;;;;;10.30;68.45;96802.84;8253511;28;20536;-70
2021/12/24 15:04:37;;;;;;;14.33;12.27;;;;;;;10.29;68.66;96792.56;8252950;28;20273;-70
2021/12/24 15:08:39;;;;;;;21.40;17.77;;;;;;;10.24;68.76;96803.16;8252992;28;20432;-70
2021/12/24 15:12:46;;;;;;;12.40;11.17;;;;;;;10.19;68.76;96794.88;8252703;28;20242;-70
2021/12/24 15:16:53;;;;;;;11.37;10.27;;;;;;;10.22;68.66;96802.44;8252992;28;20238;-70
2021/12/24 15:20:56;;;;;;;13.10;9.90;;;;;;;10.06;69.14;96797.38;8252544;28;20297;-70
2021/12/24 15:24:59;;;;;;;10.70;9.60;;;;;;;10.16;68.92;96805.41;8252361;28;20238;-70
2021/12/24 15:29:07;;;;;;;11.17;10.03;;;;;;;10.10;69.23;96803.19;8252119;28;20238;-70
2021/12/24 15:33:11;;;;;;;13.20;10.07;;;;;;;10.24;68.70;96818.69;8244415;28;20234;-70
2021/12/24 15:37:14;;;;;;;11.70;10.50;;;;;;;10.08;68.94;96817.97;8251938;28;20559;-70
2021/12/24 15:41:18;;;;;;;11.10;9.90;;;;;;;10.16;68.72;96815.75;8251969;28;20237;-70
2021/12/24 15:45:21;;;;;;;11.07;9.97;;;;;;;10.16;68.85;96810.56;8252033;28;20238;-70
2021/12/24 15:49:25;;;;;;;10.77;9.70;;;;;;;10.11;69.23;96813.47;8251831;28;20524;-70
2021/12/24 15:53:28;;;;;;;12.00;10.80;;;;;;;10.29;68.66;96813.25;8251549;28;20240;-70
2021/12/24 15:57:32;;;;;;;11.40;10.30;;;;;;;10.14;68.74;96804.66;8251544;28;20253;-70
2021/12/24 16:01:35;;;;;;;13.40;11.73;;;;;;;10.36;68.41;96809.41;8251886;28;20249;-70
2021/12/24 16:05:41;;;;;;;15.83;14.23;;;;;;;10.29;68.55;96808.91;8251071;28;20234;-70
2021/12/24 16:09:44;;;;;;;20.67;18.47;;;;;;;10.23;68.63;96806.69;8251211;28;20548;-70
2021/12/24 16:13:49;;;;;;;14.67;13.17;;;;;;;10.20;68.86;96814.63;8250897;28;20237;-70
2021/12/24 16:17:52;;;;;;;11.90;10.70;;;;;;;10.21;69.04;96802.56;8251095;28;20226;-70
2021/12/24 16:21:57;;;;;;;13.43;11.77;;;;;;;10.14;69.09;96810.66;8250480;28;20413;-70
2021/12/24 16:26:00;;;;;;;13.50;12.17;;;;;;;10.22;68.29;96802.44;8250728;28;20586;-70
2021/12/24 16:30:10;;;;;;;14.53;12.60;;;;;;;10.27;68.34;96808.16;8250457;28;20240;-70
2021/12/24 16:34:13;;;;;;;17.83;15.93;;;;;;;10.28;68.55;96806.41;8250008;28;20226;-70
2021/12/24 16:38:17;;;;;;;21.37;19.10;;;;;;;10.36;68.14;96799.06;8250294;28;20238;-70
2021/12/24 16:42:23;;;;;;;20.43;16.80;;;;;;;10.32;67.90;96810.53;8249766;28;20265;-70
2021/12/24 16:46:27;;;;;;;16.80;15.00;;;;;;;10.37;67.83;96801.53;8250335;28;20265;-70
2021/12/24 16:50:37;;;;;;;21.43;19.27;;;;;;;10.39;67.77;96798.03;8250334;28;20459;-70
2021/12/24 16:54:42;;;;;;;19.47;17.37;;;;;;;10.43;67.74;96797.72;8250381;28;20230;-70
2021/12/24 16:58:45;;;;;;;16.10;13.07;;;;;;;10.37;67.67;96790.34;8250129;28;20230;-70
2021/12/24 17:02:48;;;;;;;10.50;9.47;;;;;;;10.40;67.71;96803.09;8250225;28;20241;-70
2021/12/24 17:06:52;;;;;;;10.63;9.53;;;;;;;10.42;67.84;96803.00;8249558;28;20233;-69
2021/12/24 17:10:56;;;;;;;11.90;10.70;;;;;;;10.40;67.85;96805.69;8250302;28;20567;-70
2021/12/24 17:14:59;;;;;;;11.60;10.40;;;;;;;10.40;67.62;96804.88;8250031;28;20234;-70
2021/12/24 17:19:02;;;;;;;13.17;10.77;;;;;;;10.41;67.98;96803.94;8249737;28;20241;-70
2021/12/24 17:23:06;;;;;;;13.50;12.10;;;;;;;10.43;67.68;96804.66;8249968;28;20245;-70
2021/12/24 17:27:12;;;;;;;12.70;11.40;;;;;;;10.47;67.95;96801.81;8249405;28;20237;-70
2021/12/24 17:31:16;;;;;;;12.80;10.90;;;;;;;10.47;67.62;96803.53;8249781;28;20250;-70
2021/12/24 17:35:19;;;;;;;13.73;11.57;;;;;;;10.35;68.17;96798.19;8249323;28;20250;-70
2021/12/24 17:39:22;;;;;;;9.93;8.93;;;;;;;10.34;68.39;96788.78;8249558;28;20230;-70
2021/12/24 17:43:27;;;;;;;9.57;8.57;;;;;;;10.40;68.03;96781.56;8249367;28;20242;-70
2021/12/24 17:47:31;;;;;;;9.30;8.33;;;;;;;10.46;67.81;96786.38;8249327;28;20238;-69
2021/12/24 17:51:34;;;;;;;8.50;7.70;;;;;;;10.44;67.74;96785.63;8248852;28;20234;-70
2021/12/24 17:55:39;;;;;;;12.87;9.67;;;;;;;10.37;68.02;96782.56;8255074;28;20230;-70
2021/12/24 17:59:44;;;;;;;10.77;9.67;;;;;;;10.36;68.20;96775.75;8255143;28;20230;-70
2021/12/24 18:03:47;;;;;;;8.27;7.47;;;;;;;10.47;67.58;96768.16;8254688;28;20467;-70
2021/12/24 18:07:52;;;;;;;8.87;7.97;;;;;;;10.35;67.94;96759.38;8254215;28;20241;-70
2021/12/24 18:11:55;;;;;;;8.27;7.47;;;;;;;10.33;68.22;96763.81;8254641;28;20249;-70
2021/12/24 18:16:00;;;;;;;7.10;6.40;;;;;;;10.17;68.49;96761.34;8254589;28;20249;-70
2021/12/24 18:20:05;;;;;;;6.30;5.70;;;;;;;10.27;68.12;96764.19;8254391;28;20234;-70
2021/12/24 18:24:08;;;;;;;6.30;5.70;;;;;;;10.32;67.98;96762.19;8245632;28;20236;-71
2021/12/24 18:28:12;;;;;;;6.80;5.63;;;;;;;10.11;68.41;96758.28;8254221;28;20280;-70
2021/12/24 18:32:16;;;;;;;5.30;4.80;;;;;;;10.26;68.15;96759.09;8253692;28;20336;-70
2021/12/24 18:36:19;;;;;;;8.60;7.57;;;;;;;10.30;67.92;96750.22;8253824;28;20241;-70
2021/12/24 18:40:22;;;;;;;6.33;5.00;;;;;;;10.22;68.37;96757.63;8253381;28;20237;-70
2021/12/24 18:44:25;;;;;;;4.80;4.30;;;;;;;10.31;68.29;96759.69;8253727;28;20242;-70
2021/12/24 18:48:30;;;;;;;4.17;3.77;;;;;;;10.33;68.05;96747.47;8253650;28;20539;-70
2021/12/24 18:52:33;;;;;;;3.73;3.43;;;;;;;10.38;67.98;96753.19;8253276;28;20528;-70
2021/12/24 18:56:36;;;;;;;3.80;3.50;;;;;;;10.29;67.92;96751.97;8253395;28;20284;-70
2021/12/24 19:00:40;;;;;;;4.77;4.37;;;;;;;10.30;68.08;96740.75;8253376;28;20229;-70
2021/12/24 19:04:44;;;;;;;3.60;3.30;;;;;;;10.20;68.43;96743.97;8252095;28;20413;-70
2021/12/24 19:08:50;;;;;;;4.70;4.07;;;;;;;10.35;68.10;96751.63;8253044;28;20513;-70
2021/12/24 19:12:54;;;;;;;2.90;2.70;;;;;;;10.36;67.99;96757.66;8252497;28;20265;-70
2021/12/24 19:16:57;;;;;;;5.43;4.93;;;;;;;10.34;67.75;96759.50;8252871;28;20571;-70
2021/12/24 19:21:02;;;;;;;6.87;6.00;;;;;;;10.35;67.43;96755.97;8252723;28;20513;-70
2021/12/24 19:25:06;;;;;;;3.73;3.40;;;;;;;10.19;68.21;96763.84;8252198;28;20246;-70
2021/12/24 19:29:09;;;;;;;2.07;1.97;;;;;;;10.09;68.67;96755.81;8251811;28;20241;-70
2021/12/24 19:33:12;;;;;;;2.50;2.30;;;;;;;10.31;68.18;96757.91;8251852;28;20246;-70
2021/12/24 19:37:17;;;;;;;2.23;1.97;;;;;;;10.33;67.72;96760.41;8252026;28;20541;-70
2021/12/24 19:41:20;;;;;;;5.23;1.90;;;;;;;10.32;68.01;96751.00;8251628;28;20250;-70
2021/12/24 19:45:23;;;;;;;2.40;1.80;;;;;;;10.18;68.59;96747.50;8251866;28;20242;-70
2021/12/24 19:49:26;;;;;;;1.70;1.60;;;;;;;10.28;68.28;96750.31;8251573;28;20308;-70
2021/12/24 19:53:31;;;;;;;2.07;1.70;;;;;;;10.34;68.12;96744.78;8251439;28;20241;-70
2021/12/24 19:57:34;;;;;;;2.10;1.90;;;;;;;10.39;67.94;96741.09;8251664;28;20238;-70
2021/12/24 20:01:37;;;;;;;2.90;2.70;;;;;;;10.41;67.77;96734.03;8251323;28;20544;-70
2021/12/24 20:05:40;;;;;;;3.67;2.30;;;;;;;10.37;67.85;96730.81;8251101;28;20238;-70
2021/12/24 20:09:45;;;;;;;2.70;2.50;;;;;;;10.41;67.99;96749.56;8251196;28;20236;-70
2021/12/24 20:13:48;;;;;;;2.60;2.40;;;;;;;10.48;67.09;96743.09;8250793;28;20242;-70
2021/12/24 20:17:52;;;;;;;17.17;13.50;;;;;;;10.47;67.09;96731.91;8251204;28;20234;-70
2021/12/24 20:21:55;;;;;;;7.03;6.00;;;;;;;10.46;67.04;96734.59;8251330;28;20423;-70
2021/12/24 20:26:00;;;;;;;3.83;3.43;;;;;;;10.49;66.88;96739.56;8250938;28;20238;-70
2021/12/24 20:30:05;;;;;;;3.00;2.70;;;;;;;10.46;67.08;96737.19;8250717;28;20244;-70
2021/12/24 20:34:07;;;;;;;2.90;2.70;;;;;;;10.41;66.88;96737.47;8250401;28;20234;-70